Time;durP1;ratioP1;P1;durP2;ratioP2;P2;SDS_P1;SDS_P2;PMS_P1;PMS_P2;Temp;Humidity;BMP_temperature;BMP_pressure;BME280_temperature;BME280_humidity;BME280_pressure;Samples;Min_cycle;Max_cycle;Signal;HPM_P1;HPM_P2
2021/09/25 00:00:29;;;;;;;14.68;12.52;;;16.80;99.90;;;;;;2098280;28;20035;-70
2021/09/25 00:01:30;;;;;;;17.40;12.60;;;16.80;99.90;;;;;;2097713;28;20070;-70
2021/09/25 00:02:31;;;;;;;14.90;12.02;;;16.80;99.90;;;;;;2098071;28;20102;-70
2021/09/25 00:03:31;;;;;;;15.18;11.70;;;16.70;99.90;;;;;;2098329;28;20025;-70
2021/09/25 00:04:33;;;;;;;15.23;12.05;;;16.70;99.90;;;;;;2098496;28;20501;-70
2021/09/25 00:05:37;;;;;;;14.55;12.10;;;16.70;99.90;;;;;;2098428;28;20537;-71
2021/09/25 00:06:37;;;;;;;15.48;12.30;;;16.70;99.90;;;;;;2097608;28;20029;-70
2021/09/25 00:07:38;;;;;;;15.77;13.02;;;16.70;99.90;;;;;;2098328;28;20021;-70
2021/09/25 00:08:39;;;;;;;15.48;12.52;;;16.70;99.90;;;;;;2097828;28;20024;-70
2021/09/25 00:09:40;;;;;;;14.93;11.68;;;16.70;99.90;;;;;;2089396;28;20048;-70
2021/09/25 00:10:42;;;;;;;13.35;11.75;;;16.70;99.90;;;;;;2097597;28;20040;-70
2021/09/25 00:11:42;;;;;;;12.75;10.65;;;16.70;99.90;;;;;;2098235;28;20055;-70
2021/09/25 00:12:43;;;;;;;12.98;11.07;;;16.70;99.90;;;;;;2098158;28;20651;-70
2021/09/25 00:13:44;;;;;;;12.45;10.75;;;16.70;99.90;;;;;;2098362;28;20040;-71
2021/09/25 00:14:44;;;;;;;11.82;10.30;;;16.70;99.90;;;;;;2098070;28;20024;-71
2021/09/25 00:15:45;;;;;;;12.27;10.38;;;16.70;99.90;;;;;;2097813;28;20036;-71
2021/09/25 00:16:46;;;;;;;13.00;11.57;;;16.70;99.90;;;;;;2097472;28;20202;-71
2021/09/25 00:17:47;;;;;;;12.88;10.68;;;16.80;99.90;;;;;;2098270;28;20378;-71
2021/09/25 00:18:48;;;;;;;12.27;10.40;;;16.70;99.90;;;;;;2097469;28;20034;-71
2021/09/25 00:19:48;;;;;;;12.32;10.70;;;16.80;99.90;;;;;;2097391;28;20390;-71
2021/09/25 00:20:49;;;;;;;12.45;10.30;;;16.70;99.90;;;;;;2097910;28;20029;-69
2021/09/25 00:21:50;;;;;;;11.57;9.60;;;16.70;99.90;;;;;;2097171;28;20028;-69
2021/09/25 00:22:51;;;;;;;11.35;9.82;;;16.70;99.90;;;;;;2097284;28;20622;-69
2021/09/25 00:23:52;;;;;;;10.80;9.32;;;16.70;99.90;;;;;;2097954;28;20060;-69
2021/09/25 00:24:52;;;;;;;10.85;9.20;;;16.80;99.90;;;;;;2097228;28;20016;-69
2021/09/25 00:25:53;;;;;;;13.52;10.05;;;16.80;99.90;;;;;;2097289;28;20421;-69
2021/09/25 00:26:54;;;;;;;12.50;8.93;;;16.80;99.90;;;;;;2097229;28;20052;-69
2021/09/25 00:27:55;;;;;;;10.35;8.90;;;16.80;99.90;;;;;;2097820;28;20390;-69
2021/09/25 00:28:55;;;;;;;9.38;8.30;;;16.80;99.90;;;;;;2097614;28;20036;-69
2021/09/25 00:29:58;;;;;;;9.32;8.32;;;16.80;99.90;;;;;;2097904;28;20028;-70
2021/09/25 00:30:59;;;;;;;9.23;8.18;;;16.80;99.90;;;;;;2097955;28;20469;-69
2021/09/25 00:32:00;;;;;;;8.90;8.02;;;16.80;99.90;;;;;;2097337;28;20056;-69
2021/09/25 00:33:01;;;;;;;8.65;7.80;;;16.80;99.90;;;;;;2089057;28;20048;-69
2021/09/25 00:34:01;;;;;;;8.90;8.00;;;16.80;99.90;;;;;;2097528;28;20048;-69
2021/09/25 00:35:03;;;;;;;8.55;7.65;;;16.80;99.90;;;;;;2097253;28;20035;-69
2021/09/25 00:36:03;;;;;;;8.75;7.50;;;16.80;99.90;;;;;;2097087;28;20116;-69
2021/09/25 00:37:04;;;;;;;8.27;7.47;;;16.80;99.90;;;;;;2097421;28;20417;-69
2021/09/25 00:38:05;;;;;;;8.82;7.80;;;16.80;99.90;;;;;;2097993;28;20078;-71
2021/09/25 00:39:06;;;;;;;8.45;7.55;;;16.80;99.90;;;;;;2098005;28;20036;-70
2021/09/25 00:40:08;;;;;;;9.13;7.72;;;16.80;99.90;;;;;;2098774;28;20040;-69
2021/09/25 00:41:08;;;;;;;9.60;7.40;;;16.80;99.90;;;;;;2098775;28;20086;-70
2021/09/25 00:42:09;;;;;;;8.20;7.40;;;16.80;99.90;;;;;;2097916;28;20257;-70
2021/09/25 00:43:09;;;;;;;10.27;8.13;;;16.80;99.90;;;;;;2098443;28;20027;-70
2021/09/25 00:44:10;;;;;;;8.98;8.05;;;16.90;99.90;;;;;;2098576;28;20070;-70
2021/09/25 00:45:13;;;;;;;9.18;7.65;;;16.90;99.90;;;;;;2097887;28;20055;-70
2021/09/25 00:46:13;;;;;;;8.45;7.55;;;16.90;99.90;;;;;;2089092;28;20021;-70
2021/09/25 00:47:15;;;;;;;8.93;7.60;;;16.90;99.90;;;;;;2097858;28;20040;-70
2021/09/25 00:48:15;;;;;;;8.13;7.30;;;16.90;99.90;;;;;;2097851;28;20036;-70
2021/09/25 00:49:20;;;;;;;10.90;8.48;;;16.90;99.90;;;;;;2097473;28;20052;-70
2021/09/25 00:50:22;;;;;;;8.98;8.02;;;16.90;99.90;;;;;;2097531;28;20028;-71
2021/09/25 00:51:23;;;;;;;8.80;7.30;;;16.90;99.90;;;;;;2097437;28;20090;-69
2021/09/25 00:52:23;;;;;;;8.40;7.55;;;16.90;99.90;;;;;;2098736;28;20101;-71
2021/09/25 00:53:24;;;;;;;8.02;7.22;;;16.90;99.90;;;;;;2098237;28;20035;-70
2021/09/25 00:54:24;;;;;;;8.00;7.20;;;16.90;99.90;;;;;;2098594;28;20073;-70
2021/09/25 00:55:26;;;;;;;8.07;6.78;;;16.90;99.90;;;;;;2097900;28;20020;-69
2021/09/25 00:56:27;;;;;;;7.97;7.18;;;16.90;99.90;;;;;;2096836;28;20024;-69
2021/09/25 00:57:28;;;;;;;7.80;7.00;;;16.80;99.90;;;;;;2098995;28;20035;-69
2021/09/25 00:58:29;;;;;;;7.80;7.00;;;16.80;99.90;;;;;;2105948;28;20111;-70
2021/09/25 00:59:30;;;;;;;7.90;7.10;;;16.80;99.90;;;;;;2105907;28;20404;-68
2021/09/25 01:00:33;;;;;;;8.32;7.35;;;16.80;99.90;;;;;;2097934;28;20037;-69
2021/09/25 01:01:33;;;;;;;9.27;7.90;;;16.80;99.90;;;;;;2097332;28;20020;-68
2021/09/25 01:02:35;;;;;;;8.55;7.47;;;16.90;99.90;;;;;;2097220;28;20485;-68
2021/09/25 01:03:36;;;;;;;8.20;7.40;;;16.80;99.90;;;;;;2098011;28;20024;-69
2021/09/25 01:04:37;;;;;;;9.38;7.53;;;16.80;99.90;;;;;;2098367;28;20021;-69
2021/09/25 01:05:41;;;;;;;10.85;7.70;;;16.80;99.90;;;;;;2097343;28;20547;-69
2021/09/25 01:06:42;;;;;;;8.32;7.50;;;16.80;99.90;;;;;;2096456;28;20020;-69
2021/09/25 01:07:42;;;;;;;8.05;7.13;;;16.80;99.90;;;;;;2098141;28;20100;-69
2021/09/25 01:08:44;;;;;;;8.73;7.35;;;16.80;99.90;;;;;;2098552;28;20035;-69
2021/09/25 01:09:45;;;;;;;7.95;7.10;;;16.80;99.90;;;;;;2097689;28;20024;-71
2021/09/25 01:10:45;;;;;;;7.90;7.10;;;16.80;99.90;;;;;;2097612;28;20127;-68
2021/09/25 01:11:48;;;;;;;8.07;6.97;;;16.80;99.90;;;;;;2098150;28;20031;-69
2021/09/25 01:12:49;;;;;;;7.65;6.85;;;16.80;99.90;;;;;;2098079;28;20056;-69
2021/09/25 01:13:50;;;;;;;7.60;6.90;;;16.80;99.90;;;;;;2098181;28;20032;-68
2021/09/25 01:14:50;;;;;;;7.65;6.60;;;16.80;99.90;;;;;;2089411;28;20055;-68
2021/09/25 01:15:52;;;;;;;7.70;6.50;;;16.70;99.90;;;;;;2089955;28;20032;-69
2021/09/25 01:16:52;;;;;;;7.00;6.30;;;16.80;99.90;;;;;;2097971;28;20040;-69
2021/09/25 01:17:53;;;;;;;7.30;6.38;;;16.80;99.90;;;;;;2099003;28;20099;-69
2021/09/25 01:18:53;;;;;;;6.97;6.28;;;16.80;99.90;;;;;;2098484;28;20163;-69
2021/09/25 01:19:54;;;;;;;7.28;6.57;;;16.80;99.90;;;;;;2099159;28;20036;-69
2021/09/25 01:21:02;;;;;;;7.18;6.47;;;16.70;99.90;;;;;;2098945;28;20048;-69
2021/09/25 01:22:04;;;;;;;7.95;6.88;;;16.80;99.90;;;;;;2098362;28;20081;-69
2021/09/25 01:23:05;;;;;;;7.38;6.68;;;16.80;99.90;;;;;;2098049;28;20104;-69
2021/09/25 01:24:05;;;;;;;7.15;6.45;;;16.80;99.90;;;;;;2098173;28;20048;-69
2021/09/25 01:25:08;;;;;;;7.28;6.43;;;16.80;99.90;;;;;;2098163;28;20028;-69
2021/09/25 01:26:09;;;;;;;7.15;6.13;;;16.70;99.90;;;;;;2097645;28;20031;-69
2021/09/25 01:27:09;;;;;;;7.07;6.38;;;16.70;99.90;;;;;;2097152;28;20029;-69
2021/09/25 01:28:10;;;;;;;7.55;6.00;;;16.80;99.90;;;;;;2096877;28;20025;-69
2021/09/25 01:29:11;;;;;;;7.15;6.43;;;16.80;99.90;;;;;;2097707;28;20051;-69
2021/09/25 01:30:14;;;;;;;6.68;5.97;;;16.80;99.90;;;;;;2097996;28;20481;-70
2021/09/25 01:31:16;;;;;;;6.90;6.05;;;16.80;99.90;;;;;;2098025;28;20511;-69
2021/09/25 01:32:18;;;;;;;6.90;6.20;;;16.80;99.90;;;;;;2098104;28;20131;-70
2021/09/25 01:33:31;;;;;;;7.65;6.25;;;16.80;99.90;;;;;;2097995;28;20033;-69
2021/09/25 01:34:33;;;;;;;6.75;5.72;;;16.80;99.90;;;;;;2097249;28;20028;-69
2021/09/25 01:35:33;;;;;;;6.72;5.95;;;16.80;99.90;;;;;;2097168;28;20596;-69
2021/09/25 01:36:34;;;;;;;6.15;5.53;;;16.80;99.90;;;;;;2096914;28;20098;-69
2021/09/25 01:37:35;;;;;;;6.30;5.70;;;16.80;99.90;;;;;;2097689;28;20113;-69
2021/09/25 01:38:36;;;;;;;6.22;5.20;;;16.80;99.90;;;;;;2096845;28;20032;-69
2021/09/25 01:39:37;;;;;;;6.10;5.50;;;16.80;99.90;;;;;;2088389;28;20052;-69
2021/09/25 01:40:37;;;;;;;6.07;5.47;;;16.80;99.90;;;;;;2096857;28;20389;-69
2021/09/25 01:41:38;;;;;;;5.85;5.25;;;16.80;99.90;;;;;;2097388;28;20548;-69
2021/09/25 01:42:39;;;;;;;5.90;5.28;;;16.90;99.90;;;;;;2096640;28;20022;-69
2021/09/25 01:43:39;;;;;;;8.00;6.32;;;16.90;99.90;;;;;;2088352;28;20553;-69
2021/09/25 01:44:40;;;;;;;7.97;6.15;;;16.90;99.90;;;;;;2096780;28;20656;-69
2021/09/25 01:45:41;;;;;;;6.47;5.78;;;16.90;99.90;;;;;;2097527;28;20354;-69
2021/09/25 01:46:42;;;;;;;8.00;5.90;;;16.90;99.90;;;;;;2096636;28;20056;-69
2021/09/25 01:47:43;;;;;;;6.30;5.70;;;16.90;99.90;;;;;;2097213;28;20024;-69
2021/09/25 01:48:43;;;;;;;8.63;5.85;;;16.90;99.90;;;;;;2097371;28;20016;-69
2021/09/25 01:49:45;;;;;;;7.30;5.80;;;16.90;99.90;;;;;;2097316;28;20393;-70
2021/09/25 01:50:46;;;;;;;6.97;5.53;;;17.00;99.90;;;;;;2097226;28;20629;-69
2021/09/25 01:51:47;;;;;;;6.97;5.25;;;17.00;99.90;;;;;;2096643;28;20036;-69
2021/09/25 01:52:47;;;;;;;7.50;5.50;;;17.00;99.90;;;;;;2096569;28;20040;-69
2021/09/25 01:53:48;;;;;;;6.03;5.28;;;17.00;99.90;;;;;;2097444;28;20432;-69
2021/09/25 01:54:49;;;;;;;7.47;5.70;;;17.00;99.90;;;;;;2096614;28;20039;-69
2021/09/25 01:55:50;;;;;;;5.90;5.05;;;17.00;99.90;;;;;;2088401;28;20033;-69
2021/09/25 01:56:51;;;;;;;6.47;5.30;;;17.00;99.90;;;;;;2087734;28;20044;-69
2021/09/25 01:57:52;;;;;;;9.02;5.63;;;17.00;99.90;;;;;;2097694;28;20115;-69
2021/09/25 01:58:52;;;;;;;7.45;5.13;;;17.00;99.90;;;;;;2097522;28;20103;-69
2021/09/25 01:59:53;;;;;;;5.85;5.20;;;17.00;99.90;;;;;;2097668;28;20043;-69
2021/09/25 02:00:54;;;;;;;6.18;5.57;;;17.00;99.90;;;;;;2097655;28;20517;-69
2021/09/25 02:01:54;;;;;;;6.22;5.05;;;17.10;99.90;;;;;;2097306;28;20051;-69
2021/09/25 02:02:55;;;;;;;6.35;5.57;;;17.00;99.90;;;;;;2096608;28;20107;-69
2021/09/25 02:03:56;;;;;;;5.95;5.35;;;17.00;99.90;;;;;;2096759;28;20044;-69
2021/09/25 02:04:56;;;;;;;5.68;5.07;;;17.10;99.90;;;;;;2097521;28;20044;-69
2021/09/25 02:05:57;;;;;;;6.35;5.10;;;17.10;99.90;;;;;;2097264;28;20058;-69
2021/09/25 02:06:57;;;;;;;5.53;4.88;;;17.10;99.90;;;;;;2096631;28;20032;-69
2021/09/25 02:07:59;;;;;;;5.95;5.05;;;17.10;99.90;;;;;;2097453;28;20028;-69
2021/09/25 02:09:00;;;;;;;7.38;5.43;;;17.10;99.90;;;;;;2105200;28;20559;-69
2021/09/25 02:10:00;;;;;;;6.13;4.90;;;17.10;99.90;;;;;;2104768;28;20028;-68
2021/09/25 02:11:02;;;;;;;6.25;5.25;;;17.00;99.90;;;;;;2097430;28;20036;-69
2021/09/25 02:12:03;;;;;;;5.95;5.20;;;17.10;99.90;;;;;;2097371;28;20028;-69
2021/09/25 02:13:04;;;;;;;7.72;5.60;;;17.00;99.90;;;;;;2096934;28;20036;-69
2021/09/25 02:14:04;;;;;;;5.97;5.20;;;17.10;99.90;;;;;;2097041;28;20033;-69
2021/09/25 02:15:06;;;;;;;6.05;5.22;;;17.10;99.90;;;;;;2097392;28;20062;-69
2021/09/25 02:16:07;;;;;;;6.18;5.18;;;17.10;99.90;;;;;;2097305;28;20074;-69
2021/09/25 02:17:08;;;;;;;6.93;5.10;;;17.10;99.90;;;;;;2096766;28;20032;-69
2021/09/25 02:18:08;;;;;;;5.78;5.18;;;17.10;99.90;;;;;;2097159;28;20493;-69
2021/09/25 02:19:09;;;;;;;5.50;5.00;;;17.10;99.90;;;;;;2097120;28;20028;-69
2021/09/25 02:20:11;;;;;;;5.68;4.90;;;17.10;99.90;;;;;;2097032;28;20486;-70
2021/09/25 02:21:12;;;;;;;6.05;5.18;;;17.10;99.90;;;;;;2097175;28;20041;-69
2021/09/25 02:22:12;;;;;;;8.40;5.45;;;17.10;99.90;;;;;;2096598;28;20037;-70
2021/09/25 02:23:13;;;;;;;6.70;5.40;;;17.10;99.90;;;;;;2088235;28;20029;-69
2021/09/25 02:24:14;;;;;;;6.65;5.28;;;17.10;99.90;;;;;;2096764;28;20513;-69
2021/09/25 02:25:15;;;;;;;6.95;4.80;;;17.10;99.90;;;;;;2097980;28;20024;-70
2021/09/25 02:26:15;;;;;;;8.90;5.55;;;17.10;99.90;;;;;;2098010;28;20029;-69
2021/09/25 02:27:16;;;;;;;7.65;5.40;;;17.10;99.90;;;;;;2097425;28;20065;-68
2021/09/25 02:28:16;;;;;;;6.57;5.20;;;17.10;99.90;;;;;;2096851;28;20115;-71
2021/09/25 02:29:17;;;;;;;7.30;5.03;;;17.10;99.90;;;;;;2088130;28;20163;-70
2021/09/25 02:30:19;;;;;;;10.30;5.20;;;17.10;99.90;;;;;;2096354;28;20064;-68
2021/09/25 02:31:20;;;;;;;6.57;5.25;;;17.10;99.90;;;;;;2097185;28;20017;-68
2021/09/25 02:32:20;;;;;;;6.82;5.15;;;17.10;99.90;;;;;;2097121;28;20543;-68
2021/09/25 02:33:21;;;;;;;6.07;5.15;;;17.10;99.90;;;;;;2097188;28;20036;-68
2021/09/25 02:34:22;;;;;;;6.68;5.30;;;17.10;99.90;;;;;;2097263;28;20044;-68
2021/09/25 02:35:24;;;;;;;6.60;4.72;;;17.10;99.90;;;;;;2097192;28;20024;-68
2021/09/25 02:36:24;;;;;;;6.38;5.20;;;17.10;99.90;;;;;;2096372;28;20081;-68
2021/09/25 02:37:25;;;;;;;6.10;5.00;;;17.10;99.90;;;;;;2096317;28;20467;-68
2021/09/25 02:38:26;;;;;;;5.78;5.05;;;17.10;99.90;;;;;;2096180;28;20095;-68
2021/09/25 02:39:28;;;;;;;6.22;5.15;;;17.10;99.90;;;;;;2096900;28;20036;-69
2021/09/25 02:40:29;;;;;;;6.28;5.10;;;17.10;99.90;;;;;;2096969;28;20461;-68
2021/09/25 02:41:29;;;;;;;5.85;4.90;;;17.10;99.90;;;;;;2096815;28;20047;-68
2021/09/25 02:42:30;;;;;;;6.88;4.82;;;17.10;99.90;;;;;;2096976;28;20147;-68
2021/09/25 02:43:31;;;;;;;6.75;5.30;;;17.10;99.90;;;;;;2096912;28;20064;-68
2021/09/25 02:44:31;;;;;;;6.57;5.35;;;17.10;99.90;;;;;;2096958;28;20025;-68
2021/09/25 02:45:33;;;;;;;7.00;5.20;;;17.10;99.90;;;;;;2096869;28;20036;-67
2021/09/25 02:46:34;;;;;;;5.97;5.20;;;17.10;99.90;;;;;;2096350;28;20024;-68
2021/09/25 02:47:35;;;;;;;6.85;5.20;;;17.10;99.90;;;;;;2097008;28;20020;-68
2021/09/25 02:48:35;;;;;;;7.57;5.75;;;17.10;99.90;;;;;;2096987;28;20039;-69
2021/09/25 02:49:36;;;;;;;7.53;5.10;;;17.10;99.90;;;;;;2096800;28;20028;-68
2021/09/25 02:50:37;;;;;;;7.82;5.18;;;17.10;99.90;;;;;;2087924;28;20024;-69
2021/09/25 02:51:37;;;;;;;7.90;5.15;;;17.10;99.90;;;;;;2088065;28;20517;-68
2021/09/25 02:52:39;;;;;;;8.15;5.20;;;17.10;99.90;;;;;;2096967;28;20140;-68
2021/09/25 02:53:40;;;;;;;6.65;5.40;;;17.10;99.90;;;;;;2096948;28;20028;-68
2021/09/25 02:54:41;;;;;;;6.95;5.50;;;17.10;99.90;;;;;;2096939;28;20021;-68
2021/09/25 02:55:41;;;;;;;9.57;5.55;;;17.10;99.90;;;;;;2096864;28;20060;-69
2021/09/25 02:56:42;;;;;;;6.57;5.13;;;17.10;99.90;;;;;;2096247;28;20024;-67
2021/09/25 02:57:43;;;;;;;7.25;5.32;;;17.10;99.90;;;;;;2096922;28;20031;-68
2021/09/25 02:58:44;;;;;;;7.50;5.40;;;17.10;99.90;;;;;;2096333;28;20580;-67
2021/09/25 02:59:45;;;;;;;13.38;5.60;;;17.10;99.90;;;;;;2096337;28;20024;-68
2021/09/25 03:00:45;;;;;;;7.22;5.28;;;17.10;99.90;;;;;;2097069;28;20124;-68
2021/09/25 03:01:46;;;;;;;7.60;5.43;;;17.10;99.90;;;;;;2096905;28;20182;-69
2021/09/25 03:02:46;;;;;;;7.47;6.30;;;17.10;99.90;;;;;;2096137;28;20025;-69
2021/09/25 03:03:48;;;;;;;7.07;5.50;;;17.10;99.90;;;;;;2088094;28;20087;-70
2021/09/25 03:04:48;;;;;;;8.18;5.50;;;17.00;99.90;;;;;;2096388;28;20024;-69
2021/09/25 03:05:49;;;;;;;5.82;5.22;;;17.00;99.90;;;;;;2097128;28;20020;-69
2021/09/25 03:06:50;;;;;;;7.85;5.82;;;17.10;99.90;;;;;;2096051;28;20040;-69
2021/09/25 03:07:50;;;;;;;6.22;5.32;;;17.00;99.90;;;;;;2096949;28;20016;-69
2021/09/25 03:08:51;;;;;;;6.03;5.35;;;17.00;99.90;;;;;;2096357;28;20025;-69
2021/09/25 03:09:51;;;;;;;6.70;5.18;;;17.00;99.90;;;;;;2096227;28;20055;-69
2021/09/25 03:10:52;;;;;;;7.47;5.63;;;17.00;99.90;;;;;;2096775;28;20107;-69
2021/09/25 03:11:53;;;;;;;7.75;5.50;;;17.00;99.90;;;;;;2096948;28;20090;-68
2021/09/25 03:12:53;;;;;;;6.60;5.60;;;17.00;99.90;;;;;;2096834;28;20040;-69
2021/09/25 03:13:54;;;;;;;8.93;5.60;;;17.00;99.90;;;;;;2096936;28;20028;-69
2021/09/25 03:14:54;;;;;;;7.90;5.97;;;17.00;99.90;;;;;;2096891;28;20378;-68
2021/09/25 03:15:55;;;;;;;9.52;5.80;;;17.00;99.90;;;;;;2097033;28;20051;-68
2021/09/25 03:16:56;;;;;;;7.43;5.80;;;17.00;99.90;;;;;;2096188;28;20028;-69
2021/09/25 03:17:56;;;;;;;7.20;5.40;;;17.00;99.90;;;;;;2096818;28;20048;-69
2021/09/25 03:18:57;;;;;;;6.50;5.50;;;17.00;99.90;;;;;;2096698;28;20033;-68
2021/09/25 03:19:58;;;;;;;6.72;5.43;;;17.00;99.90;;;;;;2095839;28;20028;-69
2021/09/25 03:20:59;;;;;;;7.32;5.60;;;17.00;99.90;;;;;;2096128;28;20028;-68
2021/09/25 03:21:59;;;;;;;6.22;5.30;;;17.00;99.90;;;;;;2096719;28;20136;-68
2021/09/25 03:23:00;;;;;;;6.90;5.20;;;17.00;99.90;;;;;;2096664;28;20033;-68
2021/09/25 03:24:01;;;;;;;8.10;5.55;;;17.00;99.90;;;;;;2096183;28;20036;-69
2021/09/25 03:25:07;;;;;;;8.32;5.32;;;16.90;99.90;;;;;;2096212;28;20115;-69
2021/09/25 03:26:07;;;;;;;6.30;5.32;;;17.00;99.90;;;;;;2087962;28;20021;-69
2021/09/25 03:27:08;;;;;;;7.78;5.65;;;16.90;99.90;;;;;;2087145;28;20056;-69
2021/09/25 03:28:09;;;;;;;7.07;5.40;;;17.00;99.90;;;;;;2096567;28;20028;-69
2021/09/25 03:29:10;;;;;;;7.57;5.47;;;16.90;99.90;;;;;;2096769;28;20108;-69
2021/09/25 03:30:13;;;;;;;9.00;5.50;;;16.90;99.90;;;;;;2096816;28;20767;-69
2021/09/25 03:31:13;;;;;;;8.75;5.22;;;16.90;99.90;;;;;;2096900;28;20024;-69
2021/09/25 03:32:14;;;;;;;8.90;5.35;;;16.90;99.90;;;;;;2096804;28;20111;-69
2021/09/25 03:33:14;;;;;;;7.93;5.28;;;17.00;99.90;;;;;;2096723;28;20032;-69
2021/09/25 03:34:16;;;;;;;7.63;5.30;;;17.00;99.90;;;;;;2096824;28;20506;-69
2021/09/25 03:35:17;;;;;;;8.43;5.47;;;16.90;99.90;;;;;;2096178;28;20797;-69
2021/09/25 03:36:18;;;;;;;8.38;5.28;;;16.90;99.90;;;;;;2096005;28;20043;-69
2021/09/25 03:37:18;;;;;;;6.82;5.30;;;16.90;99.90;;;;;;2096064;28;20052;-68
2021/09/25 03:38:21;;;;;;;7.80;5.25;;;16.90;99.90;;;;;;2096742;28;20052;-69
2021/09/25 03:39:22;;;;;;;8.55;5.22;;;16.90;99.90;;;;;;2096843;28;20032;-69
2021/09/25 03:40:23;;;;;;;6.05;5.20;;;16.90;99.90;;;;;;2096133;28;20048;-69
2021/09/25 03:41:23;;;;;;;6.22;5.00;;;16.90;99.90;;;;;;2095998;28;20033;-69
2021/09/25 03:42:24;;;;;;;7.03;5.20;;;16.90;99.90;;;;;;2096084;28;20042;-69
2021/09/25 03:43:25;;;;;;;9.02;5.55;;;16.90;99.90;;;;;;2087761;28;20475;-69
2021/09/25 03:44:25;;;;;;;6.20;5.15;;;16.90;99.90;;;;;;2096123;28;20045;-69
2021/09/25 03:45:26;;;;;;;5.65;5.10;;;16.90;99.90;;;;;;2096751;28;20028;-69
2021/09/25 03:46:26;;;;;;;6.47;4.85;;;16.90;99.90;;;;;;2096698;28;20474;-69
2021/09/25 03:47:27;;;;;;;5.35;4.68;;;16.90;99.90;;;;;;2095956;28;20020;-69
2021/09/25 03:48:28;;;;;;;9.68;5.47;;;16.90;99.90;;;;;;2096317;28;20037;-69
2021/09/25 03:49:28;;;;;;;7.13;4.82;;;16.90;99.90;;;;;;2097074;28;20021;-69
2021/09/25 03:50:29;;;;;;;7.05;5.50;;;16.90;99.90;;;;;;2096788;28;20474;-69
2021/09/25 03:51:30;;;;;;;7.80;5.20;;;16.90;99.90;;;;;;2098178;28;20020;-69
2021/09/25 03:52:30;;;;;;;5.93;4.57;;;16.90;99.90;;;;;;2098370;28;20070;-69
2021/09/25 03:53:31;;;;;;;6.45;5.25;;;16.90;99.90;;;;;;2098323;28;20029;-69
2021/09/25 03:54:31;;;;;;;7.82;5.30;;;16.90;99.90;;;;;;2098379;28;20111;-69
2021/09/25 03:55:32;;;;;;;5.88;5.30;;;16.90;99.90;;;;;;2098264;28;20075;-69
2021/09/25 03:56:33;;;;;;;5.50;4.90;;;16.90;99.90;;;;;;2097514;28;20032;-69
2021/09/25 03:57:34;;;;;;;6.40;4.95;;;16.90;99.90;;;;;;2098260;28;20082;-69
2021/09/25 03:58:36;;;;;;;5.47;4.80;;;16.90;99.90;;;;;;2098343;28;20100;-69
2021/09/25 03:59:36;;;;;;;8.00;5.25;;;16.90;99.90;;;;;;2098461;28;20036;-68
2021/09/25 04:00:42;;;;;;;7.00;5.35;;;16.90;99.90;;;;;;2098268;28;20500;-68
2021/09/25 04:01:43;;;;;;;6.05;5.32;;;16.90;99.90;;;;;;2097995;28;20408;-68
2021/09/25 04:02:43;;;;;;;6.63;5.00;;;16.90;99.90;;;;;;2098136;28;20063;-68
2021/09/25 04:03:44;;;;;;;7.22;5.18;;;16.90;99.90;;;;;;2098163;28;20021;-68
2021/09/25 04:04:45;;;;;;;6.82;5.10;;;16.90;99.90;;;;;;2098119;28;20409;-69
2021/09/25 04:05:46;;;;;;;6.18;5.15;;;16.90;99.90;;;;;;2098034;28;20041;-69
2021/09/25 04:06:46;;;;;;;5.53;5.00;;;16.90;99.90;;;;;;2097317;28;20044;-69
2021/09/25 04:07:48;;;;;;;7.47;4.97;;;16.90;99.90;;;;;;2097475;28;20091;-69
2021/09/25 04:08:49;;;;;;;6.05;4.68;;;16.90;99.90;;;;;;2089310;28;20032;-69
2021/09/25 04:09:50;;;;;;;6.10;4.78;;;16.90;99.90;;;;;;2097529;28;20021;-69
2021/09/25 04:10:50;;;;;;;5.68;4.80;;;16.90;99.90;;;;;;2098106;28;20027;-69
2021/09/25 04:11:51;;;;;;;7.57;5.00;;;16.90;99.90;;;;;;2098077;28;20032;-69
2021/09/25 04:12:52;;;;;;;5.57;4.78;;;16.90;99.90;;;;;;2098092;28;20020;-69
2021/09/25 04:13:52;;;;;;;6.25;4.82;;;16.90;99.90;;;;;;2097541;28;20386;-69
2021/09/25 04:14:53;;;;;;;6.07;4.65;;;16.90;99.90;;;;;;2097713;28;20033;-69
2021/09/25 04:15:54;;;;;;;7.47;5.25;;;16.90;99.90;;;;;;2098120;28;20040;-69
2021/09/25 04:16:55;;;;;;;6.05;5.00;;;16.90;99.90;;;;;;2097456;28;20025;-69
2021/09/25 04:17:55;;;;;;;5.97;5.10;;;16.80;99.90;;;;;;2098233;28;20134;-69
2021/09/25 04:18:56;;;;;;;6.53;4.80;;;16.80;99.90;;;;;;2098291;28;20029;-69
2021/09/25 04:19:56;;;;;;;6.80;4.80;;;16.80;99.90;;;;;;2098143;28;20029;-70
2021/09/25 04:20:57;;;;;;;6.95;5.07;;;16.80;99.90;;;;;;2097324;28;20032;-68
2021/09/25 04:21:58;;;;;;;8.15;4.90;;;16.80;99.90;;;;;;2097213;28;20416;-69
2021/09/25 04:23:05;;;;;;;6.43;4.70;;;16.80;99.90;;;;;;2097804;28;20081;-68
2021/09/25 04:24:05;;;;;;;5.32;4.78;;;16.80;99.90;;;;;;2097327;28;20036;-69
2021/09/25 04:25:06;;;;;;;8.55;5.47;;;16.80;99.90;;;;;;2088963;28;20033;-70
2021/09/25 04:26:07;;;;;;;6.32;5.47;;;16.80;99.90;;;;;;2097388;28;20024;-68
2021/09/25 04:27:09;;;;;;;5.47;4.80;;;16.80;99.90;;;;;;2097226;28;20032;-69
2021/09/25 04:28:09;;;;;;;6.25;5.10;;;16.80;99.90;;;;;;2098036;28;20028;-69
2021/09/25 04:29:10;;;;;;;5.20;4.70;;;16.80;99.90;;;;;;2098013;28;20052;-69
2021/09/25 04:30:11;;;;;;;5.40;4.90;;;16.80;99.90;;;;;;2097954;28;20123;-69
2021/09/25 04:31:12;;;;;;;5.95;4.80;;;16.80;99.90;;;;;;2097172;28;20028;-69
2021/09/25 04:32:13;;;;;;;5.10;4.60;;;16.80;99.90;;;;;;2097262;28;20028;-69
2021/09/25 04:33:16;;;;;;;5.13;4.40;;;16.80;99.90;;;;;;2097858;28;20040;-69
2021/09/25 04:34:17;;;;;;;5.15;4.40;;;16.80;99.90;;;;;;2097708;28;20036;-69
2021/09/25 04:35:18;;;;;;;5.60;4.72;;;16.80;99.90;;;;;;2097939;28;20103;-69
2021/09/25 04:36:18;;;;;;;5.43;4.70;;;16.80;99.90;;;;;;2097878;28;20032;-69
2021/09/25 04:37:20;;;;;;;7.13;4.63;;;16.80;99.90;;;;;;2097153;28;20088;-69
2021/09/25 04:38:20;;;;;;;4.57;4.13;;;16.80;99.90;;;;;;2097948;28;20016;-69
2021/09/25 04:39:21;;;;;;;4.80;4.30;;;16.80;99.90;;;;;;2097381;28;20163;-69
2021/09/25 04:40:23;;;;;;;5.13;4.35;;;16.80;99.90;;;;;;2097186;28;20040;-69
2021/09/25 04:41:24;;;;;;;6.95;5.10;;;16.80;99.90;;;;;;2098081;28;20059;-69
2021/09/25 04:42:24;;;;;;;5.55;4.70;;;16.80;99.90;;;;;;2097724;28;20033;-69
2021/09/25 04:43:25;;;;;;;5.57;4.60;;;16.80;99.90;;;;;;2088675;28;20048;-69
2021/09/25 04:44:25;;;;;;;5.03;4.50;;;16.70;99.90;;;;;;2080783;28;20064;-68
2021/09/25 04:45:27;;;;;;;6.90;5.28;;;16.80;99.90;;;;;;2097421;28;20032;-71
2021/09/25 04:46:27;;;;;;;6.53;4.68;;;16.70;99.90;;;;;;2097733;28;20039;-70
2021/09/25 04:47:28;;;;;;;4.97;4.47;;;16.70;99.90;;;;;;2097270;28;20038;-69
2021/09/25 04:48:28;;;;;;;4.95;4.35;;;16.70;99.90;;;;;;2097676;28;20056;-68
2021/09/25 04:49:29;;;;;;;9.40;5.00;;;16.70;99.90;;;;;;2097669;28;20032;-68
2021/09/25 04:50:30;;;;;;;6.25;4.80;;;16.70;99.90;;;;;;2097145;28;20060;-68
2021/09/25 04:51:30;;;;;;;5.60;4.75;;;16.70;99.90;;;;;;2089044;28;20033;-68
2021/09/25 04:52:31;;;;;;;5.28;4.75;;;16.80;99.90;;;;;;2097225;28;20094;-68
2021/09/25 04:53:32;;;;;;;5.07;4.57;;;16.70;99.90;;;;;;2096989;28;20040;-70
2021/09/25 04:54:32;;;;;;;6.30;4.90;;;16.80;99.90;;;;;;2097201;28;20032;-68
2021/09/25 04:55:33;;;;;;;6.28;4.60;;;16.70;99.90;;;;;;2097591;28;20477;-68
2021/09/25 04:56:34;;;;;;;5.10;4.60;;;16.70;99.90;;;;;;2096894;28;20032;-70
2021/09/25 04:57:38;;;;;;;4.95;4.43;;;16.70;99.90;;;;;;2105539;28;20044;-68
2021/09/25 04:58:39;;;;;;;6.43;4.57;;;16.80;99.90;;;;;;2105230;28;20492;-68
2021/09/25 04:59:39;;;;;;;5.20;4.65;;;16.70;99.90;;;;;;2097616;28;20029;-68
2021/09/25 05:00:40;;;;;;;6.18;5.07;;;16.70;99.90;;;;;;2097537;28;20025;-68
2021/09/25 05:01:41;;;;;;;7.05;4.72;;;16.80;99.90;;;;;;2097540;28;20055;-69
2021/09/25 05:02:41;;;;;;;5.47;4.78;;;16.70;99.90;;;;;;2096731;28;20107;-68
2021/09/25 05:03:42;;;;;;;5.80;4.90;;;16.70;99.90;;;;;;2097027;28;20020;-68
2021/09/25 05:04:42;;;;;;;6.82;5.18;;;16.70;99.90;;;;;;2097269;28;20048;-68
2021/09/25 05:05:43;;;;;;;7.85;5.18;;;16.70;99.90;;;;;;2097611;28;20035;-70
2021/09/25 05:06:45;;;;;;;5.63;5.00;;;16.80;99.90;;;;;;2096605;28;20028;-68
2021/09/25 05:07:46;;;;;;;6.93;5.15;;;16.70;99.90;;;;;;2096842;28;20479;-68
2021/09/25 05:08:46;;;;;;;6.57;5.15;;;16.80;99.90;;;;;;2096891;28;20024;-68
2021/09/25 05:09:47;;;;;;;5.80;5.13;;;16.80;99.90;;;;;;2097598;28;20055;-68
2021/09/25 05:10:48;;;;;;;5.57;4.97;;;16.70;99.90;;;;;;2097607;28;20028;-69
2021/09/25 05:11:49;;;;;;;5.50;4.80;;;16.80;99.90;;;;;;2097031;28;20036;-69
2021/09/25 05:12:50;;;;;;;7.03;5.03;;;16.80;99.90;;;;;;2097140;28;20020;-69
2021/09/25 05:13:51;;;;;;;5.68;4.78;;;16.80;99.90;;;;;;2097808;28;20056;-69
2021/09/25 05:14:52;;;;;;;6.80;4.53;;;16.70;99.90;;;;;;2097655;28;20128;-69
2021/09/25 05:15:52;;;;;;;5.32;4.68;;;16.80;99.90;;;;;;2098016;28;20508;-69
2021/09/25 05:16:55;;;;;;;5.43;4.90;;;16.70;99.90;;;;;;2096458;28;20028;-68